createdAt,value
2022-09-07T00:00:09.448Z,101043.28
2022-09-07T00:03:06.999Z,101028.66
2022-09-07T00:06:08.932Z,101034.88
2022-09-07T00:09:06.707Z,101040.22
2022-09-07T00:12:04.080Z,101046.34
2022-09-07T00:15:04.159Z,101045.91
2022-09-07T00:18:01.829Z,101059.03
2022-09-07T00:21:00.406Z,101054.13
2022-09-07T00:23:57.967Z,101050.84
2022-09-07T00:26:55.660Z,101048.81
2022-09-07T00:29:52.629Z,101048.84
2022-09-07T00:32:49.526Z,101049.63
2022-09-07T00:35:46.986Z,101054.19
2022-09-07T00:38:44.192Z,101044.31
2022-09-07T00:41:41.894Z,101042.31
2022-09-07T00:44:44.505Z,101041.81
2022-09-07T00:47:43.871Z,101037.66
2022-09-07T00:50:54.142Z,101039.31
2022-09-07T00:53:58.139Z,101033.63
2022-09-07T00:56:55.817Z,101030.28
2022-09-07T00:59:53.097Z,101040.03
2022-09-07T01:02:51.152Z,101009.72
2022-09-07T01:06:10.275Z,101002.22
2022-09-07T01:09:13.402Z,101011.38
2022-09-07T01:12:10.696Z,101011.41
2022-09-07T01:15:07.835Z,101025.75
2022-09-07T01:18:24.890Z,101025.16
2022-09-07T01:21:26.528Z,101026.94
2022-09-07T01:24:38.892Z,101026.53
2022-09-07T01:27:59.945Z,101023.63
2022-09-07T01:31:07.722Z,101018.06
2022-09-07T01:34:16.735Z,101024.66
2022-09-07T01:37:25.068Z,101056.59
2022-09-07T01:40:53.872Z,101097.44
2022-09-07T01:44:04.169Z,101143.59
2022-09-07T01:47:02.988Z,101166.81
2022-09-07T01:50:10.289Z,101223.50
2022-09-07T01:53:19.765Z,101222.94
2022-09-07T01:56:24.935Z,101230.00
2022-09-07T01:59:39.534Z,101191.47
2022-09-07T02:02:49.530Z,101182.47
2022-09-07T02:05:52.751Z,101176.31
2022-09-07T02:09:12.333Z,101184.94
2022-09-07T02:12:16.874Z,101188.69
2022-09-07T02:15:15.804Z,101169.78
2022-09-07T02:18:14.298Z,101158.66
2022-09-07T02:21:12.859Z,101158.97
2022-09-07T02:24:23.346Z,101158.59
2022-09-07T02:27:51.913Z,101150.41
2022-09-07T02:30:48.876Z,101137.81
2022-09-07T02:33:46.029Z,101136.00
2022-09-07T02:36:48.078Z,101134.28
2022-09-07T02:39:44.916Z,101134.78
2022-09-07T02:42:41.794Z,101136.97
2022-09-07T02:45:44.668Z,101130.00
2022-09-07T02:49:03.926Z,101123.81
2022-09-07T02:52:22.379Z,101121.38
2022-09-07T02:55:27.089Z,101127.44
2022-09-07T02:58:32.607Z,101127.03
2022-09-07T03:01:47.681Z,101131.94
2022-09-07T03:04:54.603Z,101128.25
2022-09-07T03:07:59.559Z,101127.50
2022-09-07T03:10:56.792Z,101128.72
2022-09-07T03:14:16.059Z,101123.06
2022-09-07T03:17:13.022Z,101126.44
2022-09-07T03:20:09.902Z,101113.75
2022-09-07T03:23:06.471Z,101111.72
2022-09-07T03:26:04.433Z,101110.88
2022-09-07T03:29:02.068Z,101103.50
2022-09-07T03:31:58.895Z,101101.44
2022-09-07T03:34:56.044Z,101102.28
2022-09-07T03:37:53.070Z,101097.75
2022-09-07T03:41:00.933Z,101089.56
2022-09-07T03:43:57.703Z,101080.59
2022-09-07T03:46:54.957Z,101076.53
2022-09-07T03:49:51.850Z,101065.50
2022-09-07T03:52:48.671Z,101058.13
2022-09-07T03:55:56.421Z,101045.00
2022-09-07T03:58:54.738Z,101040.44
2022-09-07T04:01:52.099Z,101038.84
2022-09-07T04:04:49.102Z,101028.97
2022-09-07T04:07:45.654Z,101043.72
2022-09-07T04:10:43.927Z,101029.81
2022-09-07T04:13:42.141Z,101033.38
2022-09-07T04:16:39.399Z,101039.31
2022-09-07T04:19:36.973Z,101024.16
2022-09-07T04:22:33.778Z,101025.88
2022-09-07T04:25:30.937Z,101018.50
2022-09-07T04:28:30.630Z,101012.53
2022-09-07T04:31:28.035Z,101008.38
2022-09-07T04:34:24.922Z,100998.53
2022-09-07T04:37:21.762Z,101004.66
2022-09-07T04:40:18.628Z,100987.66
2022-09-07T04:43:16.342Z,100978.50
2022-09-07T04:46:13.921Z,100983.09
2022-09-07T04:49:11.203Z,100975.22
2022-09-07T04:52:08.413Z,100975.63
2022-09-07T04:55:06.625Z,100971.97
2022-09-07T04:58:04.133Z,100971.59
2022-09-07T05:01:05.023Z,100971.19
2022-09-07T05:04:04.167Z,100976.59
2022-09-07T05:07:01.006Z,100988.06
2022-09-07T05:09:58.143Z,101003.59
2022-09-07T05:12:55.169Z,101012.66
2022-09-07T05:15:51.922Z,101010.22
2022-09-07T05:18:52.617Z,101008.59
2022-09-07T05:21:50.161Z,101015.13
2022-09-07T05:24:47.755Z,101014.34
2022-09-07T05:27:47.938Z,101011.03
2022-09-07T05:37:20.484Z,101024.03
2022-09-07T05:40:18.553Z,101028.53
2022-09-07T05:43:16.414Z,101021.50
2022-09-07T05:46:14.566Z,101020.75
2022-09-07T05:49:12.008Z,101021.25
2022-09-07T05:52:08.900Z,101021.28
2022-09-07T05:55:26.310Z,101031.50
2022-09-07T05:58:23.002Z,101027.81
2022-09-07T06:01:19.940Z,101037.66
2022-09-07T06:04:16.853Z,101039.31
2022-09-07T06:07:22.157Z,101057.69
2022-09-07T06:13:37.499Z,101067.06
2022-09-07T06:16:35.211Z,101071.47
2022-09-07T06:19:31.948Z,101055.56
2022-09-07T06:22:31.246Z,101055.56
2022-09-07T06:25:29.196Z,101059.25
2022-09-07T06:28:48.894Z,101060.97
2022-09-07T06:35:04.581Z,101072.81
2022-09-07T06:38:05.096Z,101072.81
2022-09-07T06:44:30.455Z,101057.69
2022-09-07T06:47:28.135Z,101057.31
2022-09-07T06:50:27.838Z,101069.13
2022-09-07T06:56:30.122Z,101065.44
2022-09-07T06:59:26.921Z,101067.88
2022-09-07T07:02:23.787Z,101074.03
2022-09-07T07:05:21.365Z,101077.34
2022-09-07T07:08:19.082Z,101079.38
2022-09-07T07:11:16.229Z,101075.28
2022-09-07T07:14:17.337Z,101080.59
2022-09-07T07:17:13.855Z,101074.88
2022-09-07T07:20:11.238Z,101083.91
2022-09-07T07:23:08.268Z,101071.63
2022-09-07T07:26:10.497Z,101085.94
2022-09-07T07:29:08.457Z,101087.16
2022-09-07T07:32:06.133Z,101080.97
2022-09-07T07:35:02.881Z,101086.63
2022-09-07T07:44:35.799Z,101089.09
2022-09-07T07:47:33.187Z,101084.19
2022-09-07T07:50:30.997Z,101074.38
2022-09-07T07:53:44.652Z,101081.78
2022-09-07T07:56:42.479Z,101080.16
2022-09-07T07:59:39.315Z,101072.41
2022-09-07T08:02:37.001Z,101074.03
2022-09-07T08:05:37.478Z,101084.63
2022-09-07T08:08:35.882Z,101082.91
2022-09-07T08:11:34.360Z,101089.38
2022-09-07T08:14:31.098Z,101103.31
2022-09-07T08:17:28.410Z,101104.91
2022-09-07T08:20:25.501Z,101101.16
2022-09-07T08:23:22.885Z,101095.69
2022-09-07T08:26:20.764Z,101093.53
2022-09-07T08:29:18.119Z,101092.28
2022-09-07T08:32:17.362Z,101102.81
2022-09-07T08:35:14.353Z,101103.66
2022-09-07T08:38:11.296Z,101102.47
2022-09-07T08:41:36.054Z,101104.13
2022-09-07T08:44:59.284Z,101105.66
2022-09-07T08:47:56.624Z,101104.28
2022-09-07T08:51:03.252Z,101095.84
2022-09-07T08:54:00.421Z,101094.88
2022-09-07T09:00:16.945Z,101106.34
2022-09-07T09:03:30.018Z,101102.66
2022-09-07T09:06:44.308Z,101098.25
2022-09-07T09:10:18.800Z,101111.75
2022-09-07T09:13:57.921Z,101105.06
2022-09-07T09:17:00.010Z,101116.50
2022-09-07T09:20:04.561Z,101096.22
2022-09-07T09:23:05.703Z,101097.78
2022-09-07T09:26:07.741Z,101097.53
2022-09-07T09:29:15.639Z,101098.84
2022-09-07T09:32:33.386Z,101087.50
2022-09-07T09:35:35.379Z,101087.91
2022-09-07T09:38:33.740Z,101085.69
2022-09-07T09:41:37.244Z,101083.28
2022-09-07T09:44:34.471Z,101090.66
2022-09-07T09:47:32.836Z,101080.91
2022-09-07T09:54:06.075Z,101092.22
2022-09-07T09:57:03.889Z,101096.00
2022-09-07T10:00:05.287Z,101085.88
2022-09-07T10:06:32.530Z,101085.09
2022-09-07T10:09:56.127Z,101087.88
2022-09-07T10:12:54.267Z,101087.50
2022-09-07T10:15:52.592Z,101083.72
2022-09-07T10:18:57.984Z,101073.78
2022-09-07T10:21:58.098Z,101082.56
2022-09-07T10:24:55.230Z,101073.81
2022-09-07T10:28:01.967Z,101069.66
2022-09-07T10:31:30.277Z,101078.81
2022-09-07T10:34:48.274Z,101070.59
2022-09-07T10:38:13.132Z,101076.47
2022-09-07T10:41:10.466Z,101084.00
2022-09-07T10:44:11.723Z,101079.41
2022-09-07T10:47:25.688Z,101084.16
2022-09-07T10:50:33.398Z,101072.28
2022-09-07T10:53:43.057Z,101068.72
2022-09-07T10:56:51.391Z,101076.47
2022-09-07T11:00:08.358Z,101085.81
2022-09-07T11:03:27.122Z,101085.75
2022-09-07T11:06:34.637Z,101072.81
2022-09-07T11:09:36.681Z,101076.53
2022-09-07T11:12:35.899Z,101078.78
2022-09-07T11:15:35.673Z,101074.03
2022-09-07T11:18:37.673Z,101068.59
2022-09-07T11:28:43.233Z,101071.03
2022-09-07T11:31:47.023Z,101072.19
2022-09-07T11:34:52.537Z,101063.47
2022-09-07T11:37:57.443Z,101063.66
2022-09-07T11:41:14.409Z,101069.50
2022-09-07T11:44:29.673Z,101067.09
2022-09-07T11:47:33.921Z,101054.78
2022-09-07T11:50:33.381Z,101053.75
2022-09-07T11:53:32.863Z,101046.75
2022-09-07T11:56:36.787Z,101045.22
2022-09-07T12:00:12.605Z,101045.56
2022-09-07T12:03:36.085Z,101051.22
2022-09-07T12:06:41.995Z,101040.28
2022-09-07T12:10:06.683Z,101041.66
2022-09-07T12:13:08.313Z,101042.13
2022-09-07T12:16:23.973Z,101042.91
2022-09-07T12:19:25.229Z,101052.16
2022-09-07T12:22:22.414Z,101041.56
2022-09-07T12:25:19.498Z,101049.31
2022-09-07T12:28:36.620Z,101054.00
2022-09-07T12:32:52.661Z,101051.56
2022-09-07T12:35:27.914Z,101048.78
2022-09-07T12:38:31.602Z,101046.94
2022-09-07T12:41:41.377Z,101037.81
2022-09-07T12:44:38.067Z,101034.53
2022-09-07T12:47:35.201Z,101037.16
2022-09-07T12:50:39.397Z,101045.97
2022-09-07T12:54:01.995Z,101037.91
2022-09-07T13:00:23.284Z,101044.06
2022-09-07T13:10:03.138Z,101029.78
2022-09-07T13:13:03.200Z,101031.63
2022-09-07T13:16:06.583Z,101023.78
2022-09-07T13:19:05.064Z,101029.38
2022-09-07T13:22:02.246Z,101032.09
2022-09-07T13:25:00.689Z,101029.31
2022-09-07T13:28:00.810Z,101031.09
2022-09-07T13:31:25.235Z,101020.78
2022-09-07T13:34:34.453Z,101011.81
2022-09-07T13:38:00.693Z,101011.19
2022-09-07T13:41:12.755Z,101023.13
2022-09-07T13:44:26.129Z,101025.16
2022-09-07T13:47:27.396Z,101023.88
2022-09-07T13:50:52.495Z,101023.03
2022-09-07T13:53:55.570Z,101018.34
2022-09-07T13:57:25.166Z,101010.50
2022-09-07T14:00:22.578Z,101004.81
2022-09-07T14:03:19.708Z,101011.34
2022-09-07T14:06:37.142Z,100994.94
2022-09-07T14:09:34.590Z,101002.31
2022-09-07T14:12:31.248Z,100998.44
2022-09-07T14:15:32.451Z,100999.09
2022-09-07T14:18:30.814Z,100994.84
2022-09-07T14:21:27.509Z,100993.97
2022-09-07T14:24:35.698Z,100988.81
2022-09-07T14:27:33.187Z,100983.38
2022-09-07T14:30:33.205Z,100985.63
2022-09-07T14:33:30.512Z,100982.81
2022-09-07T14:36:47.979Z,100972.75
2022-09-07T14:39:46.984Z,100965.50
2022-09-07T14:42:44.342Z,100978.22
2022-09-07T14:45:41.606Z,100979.88
2022-09-07T14:48:39.544Z,100977.88
2022-09-07T14:51:37.021Z,100982.63
2022-09-07T14:54:34.969Z,100982.28
2022-09-07T14:57:32.863Z,100992.97
2022-09-07T15:00:32.993Z,100988.53
2022-09-07T15:03:30.610Z,100994.22
2022-09-07T15:09:53.830Z,100989.81
2022-09-07T15:12:58.853Z,100987.44
2022-09-07T15:16:00.090Z,100996.09
2022-09-07T15:19:15.500Z,100995.22
2022-09-07T15:22:13.662Z,100993.84
2022-09-07T15:25:11.257Z,100993.97
2022-09-07T15:29:08.172Z,100981.59
2022-09-07T15:31:42.502Z,100977.41
2022-09-07T15:34:40.898Z,100985.22
2022-09-07T15:41:21.960Z,100981.63
2022-09-07T15:44:15.093Z,100978.63
2022-09-07T15:50:29.500Z,100986.88
2022-09-07T15:57:47.695Z,100978.06
2022-09-07T16:00:01.824Z,100988.44
2022-09-07T16:03:09.887Z,100975.16
2022-09-07T16:06:13.566Z,100981.22
2022-09-07T16:09:10.385Z,100974.97
2022-09-07T16:15:27.065Z,100967.28
2022-09-07T16:18:24.613Z,100967.03
2022-09-07T16:21:26.269Z,100971.81
2022-09-07T16:24:23.741Z,100973.66
2022-09-07T16:27:20.815Z,100956.38
2022-09-07T16:30:17.650Z,100956.56
2022-09-07T16:33:14.393Z,100954.41
2022-09-07T16:36:14.389Z,100957.47
2022-09-07T16:39:11.664Z,100958.56
2022-09-07T16:42:09.078Z,100964.59
2022-09-07T16:48:24.880Z,100948.25
2022-09-07T16:51:23.779Z,100949.50
2022-09-07T16:54:21.187Z,100950.41
2022-09-07T16:57:18.848Z,100951.78
2022-09-07T17:00:16.529Z,100951.78
2022-09-07T17:03:13.719Z,100945.91
2022-09-07T17:06:12.036Z,100948.88
2022-09-07T17:09:11.333Z,100951.44
2022-09-07T17:12:12.387Z,100939.44
2022-09-07T17:15:10.249Z,100941.19
2022-09-07T17:18:07.705Z,100952.91
2022-09-07T17:21:06.320Z,100942.41
2022-09-07T17:24:04.584Z,100932.03
2022-09-07T17:27:01.706Z,100931.88
2022-09-07T17:29:58.433Z,100939.88
2022-09-07T17:32:55.761Z,100943.50
2022-09-07T17:35:52.593Z,100945.56
2022-09-07T17:42:07.886Z,100947.03
2022-09-07T17:45:05.722Z,100953.34
2022-09-07T17:48:02.634Z,100959.09
2022-09-07T17:51:03.921Z,100955.25
2022-09-07T17:54:02.807Z,100937.59
2022-09-07T17:56:59.717Z,100953.56
2022-09-07T18:00:12.447Z,100949.34
2022-09-07T18:03:09.653Z,100962.94
2022-09-07T18:06:06.901Z,100962.06
2022-09-07T18:09:06.710Z,100963.66
2022-09-07T18:12:04.083Z,100961.53
2022-09-07T18:15:01.594Z,100969.06
2022-09-07T18:17:58.926Z,100966.81
2022-09-07T18:20:55.631Z,100965.34
2022-09-07T18:23:54.083Z,100967.41
2022-09-07T18:26:52.897Z,100974.91
2022-09-07T18:29:50.195Z,100982.84
2022-09-07T18:32:47.639Z,100986.88
2022-09-07T18:35:46.241Z,100986.16
2022-09-07T18:38:43.820Z,100977.53
2022-09-07T18:41:41.098Z,100971.19
2022-09-07T18:47:55.395Z,100978.13
2022-09-07T18:50:55.797Z,100971.34
2022-09-07T18:53:52.589Z,100973.16
2022-09-07T18:56:49.874Z,100982.25
2022-09-07T18:59:47.611Z,100979.38
2022-09-07T19:02:45.932Z,100971.63
2022-09-07T19:05:50.001Z,100979.44
2022-09-07T19:08:48.091Z,100994.84
2022-09-07T19:11:46.082Z,100987.19
2022-09-07T19:14:43.601Z,100993.09
2022-09-07T19:17:40.980Z,100987.75
2022-09-07T19:20:38.024Z,100989.47
2022-09-07T19:23:36.069Z,100986.69
2022-09-07T19:26:37.657Z,100990.44
2022-09-07T19:29:34.816Z,100987.13
2022-09-07T19:32:31.679Z,100988.97
2022-09-07T19:35:29.045Z,100993.09
2022-09-07T19:38:25.779Z,100988.09
2022-09-07T19:41:22.827Z,100989.38
2022-09-07T19:44:19.477Z,100992.72
2022-09-07T19:47:16.629Z,100990.31
2022-09-07T19:50:14.151Z,100981.50
2022-09-07T19:53:11.726Z,100981.66
2022-09-07T19:56:17.292Z,100977.72
2022-09-07T19:59:14.941Z,100988.34
2022-09-07T20:02:11.792Z,100981.81
2022-09-07T20:05:08.809Z,100989.53
2022-09-07T20:08:06.848Z,100970.16
2022-09-07T20:11:05.701Z,100969.78
2022-09-07T20:14:03.207Z,100967.34
2022-09-07T20:17:01.414Z,100953.81
2022-09-07T20:19:58.757Z,100960.53
2022-09-07T20:22:56.138Z,100959.38
2022-09-07T20:25:57.531Z,100955.38
2022-09-07T20:29:10.715Z,100957.94
2022-09-07T20:32:13.445Z,100950.31
2022-09-07T20:35:10.795Z,100943.03
2022-09-07T20:38:07.894Z,100935.69
2022-09-07T20:41:04.732Z,100940.94
2022-09-07T20:44:02.951Z,100931.06
2022-09-07T20:46:59.955Z,100932.72
2022-09-07T20:49:56.992Z,100923.59
2022-09-07T20:52:53.779Z,100914.81
2022-09-07T20:56:00.307Z,100911.22
2022-09-07T20:59:01.539Z,100916.66
2022-09-07T21:01:58.805Z,100923.72
2022-09-07T21:04:56.186Z,100916.22
2022-09-07T21:07:54.206Z,100916.56
2022-09-07T21:10:51.733Z,100916.16
2022-09-07T21:13:54.733Z,100921.06
2022-09-07T21:16:51.960Z,100924.94
2022-09-07T21:19:49.113Z,100925.44
2022-09-07T21:22:45.833Z,100926.25
2022-09-07T21:25:44.089Z,100926.19
2022-09-07T21:28:40.835Z,100928.16
2022-09-07T21:31:37.751Z,100931.25
2022-09-07T21:34:34.868Z,100932.59
2022-09-07T21:37:31.789Z,100921.56
2022-09-07T21:40:29.223Z,100927.22
2022-09-07T21:43:27.120Z,100924.69
2022-09-07T21:46:24.462Z,100920.56
2022-09-07T21:49:22.140Z,100921.88
2022-09-07T21:52:20.143Z,100919.91
2022-09-07T21:55:17.021Z,100920.00
2022-09-07T21:58:13.573Z,100925.00
2022-09-07T22:01:17.290Z,100934.03
2022-09-07T22:04:14.799Z,100932.31
2022-09-07T22:07:11.941Z,100923.91
2022-09-07T22:10:09.638Z,100928.31
2022-09-07T22:13:07.182Z,100927.97
2022-09-07T22:16:04.382Z,100914.91
2022-09-07T22:19:01.845Z,100913.81
2022-09-07T22:21:58.861Z,100910.22
2022-09-07T22:24:56.001Z,100910.25
2022-09-07T22:27:53.345Z,100915.19
2022-09-07T22:30:50.946Z,100920.16
2022-09-07T22:33:48.698Z,100911.94
2022-09-07T22:36:45.896Z,100909.06
2022-09-07T22:39:42.916Z,100912.31
2022-09-07T22:42:39.874Z,100907.84
2022-09-07T22:45:36.895Z,100906.25
2022-09-07T22:48:34.044Z,100905.47
2022-09-07T22:51:30.804Z,100900.59
2022-09-07T22:54:27.599Z,100896.47
2022-09-07T22:57:25.136Z,100894.84
2022-09-07T23:00:21.978Z,100882.56
2022-09-07T23:03:18.855Z,100881.75
2022-09-07T23:06:29.681Z,100881.34
2022-09-07T23:09:27.188Z,100877.25
2022-09-07T23:12:24.998Z,100881.75
2022-09-07T23:15:22.150Z,100865.81
2022-09-07T23:18:20.492Z,100861.78
2022-09-07T23:21:17.621Z,100850.78
2022-09-07T23:24:16.597Z,100850.81
2022-09-07T23:27:14.109Z,100854.50
2022-09-07T23:30:11.870Z,100856.16
2022-09-07T23:33:09.415Z,100859.44
2022-09-07T23:36:08.075Z,100856.53
2022-09-07T23:39:05.230Z,100858.22
2022-09-07T23:42:01.962Z,100846.75
2022-09-07T23:44:59.179Z,100835.28
2022-09-07T23:47:56.313Z,100834.06
2022-09-07T23:50:54.191Z,100826.69
2022-09-07T23:53:51.168Z,100827.16
2022-09-07T23:56:48.052Z,100821.44
2022-09-07T23:59:45.145Z,100824.69
